Time;durP1;ratioP1;P1;durP2;ratioP2;P2;SDS_P1;SDS_P2;PMS_P1;PMS_P2;Temp;Humidity;BMP_temperature;BMP_pressure;BME280_temperature;BME280_humidity;BME280_pressure;Samples;Min_cycle;Max_cycle;Signal;HPM_P1;HPM_P2
2023/03/27 00:02:07;;;;;;;;;;;;;;;;;;5014704;28;7004;-68
2023/03/27 00:04:32;;;;;;;;;;;;;;;;;;5014929;28;7556;-68
2023/03/27 00:10:17;;;;;;;;;;;;;;;;;;5014603;28;6693;-68
2023/03/27 00:12:43;;;;;;;;;;;;;;;;;;5014711;28;6985;-68
2023/03/27 00:15:25;;;;;;;;;;;;;;;;;;5014708;28;7176;-68
2023/03/27 00:17:54;;;;;;;;;;;;;;;;;;5014468;28;7028;-68
2023/03/27 00:20:21;;;;;;;;;;;;;;;;;;5014635;28;6986;-68
2023/03/27 00:22:48;;;;;;;;;;;;;;;;;;5014826;28;7350;-68
2023/03/27 00:28:17;;;;;;;;;;;;;;;;;;5014444;28;7000;-68
2023/03/27 00:30:44;;;;;;;;;;;;;;;;;;5014308;28;7200;-68
2023/03/27 00:36:38;;;;;;;;;;;;;;;;;;5014399;28;6981;-68
2023/03/27 00:39:04;;;;;;;;;;;;;;;;;;5014607;28;7024;-68
2023/03/27 00:41:34;;;;;;;;;;;;;;;;;;5014489;28;7085;-68
2023/03/27 00:44:02;;;;;;;;;;;;;;;;;;5015008;28;7350;-68
2023/03/27 00:46:43;;;;;;;;;;;;;;;;;;5018122;28;7398;-68
2023/03/27 00:49:14;;;;;;;;;;;;;;;;;;5018146;28;7372;-68
2023/03/27 00:51:52;;;;;;;;;;;;;;;;;;5017765;28;7225;-68
2023/03/27 00:54:25;;;;;;;;;;;;;;;;;;5018167;28;6955;-68
2023/03/27 00:57:13;;;;;;;;;;;;;;;;;;5017725;28;6946;-68
2023/03/27 01:02:42;;;;;;;;;;;;;;;;;;5017772;28;7401;-68
2023/03/27 01:05:09;;;;;;;;;;;;;;;;;;5017895;28;7132;-68
2023/03/27 01:07:35;;;;;;;;;;;;;;;;;;5018246;28;7135;-63
2023/03/27 01:10:03;;;;;;;;;;;;;;;;;;5017613;28;7215;-63
2023/03/27 01:18:34;;;;;;;;;;;;;;;;;;5017806;28;6921;-63
2023/03/27 01:27:36;;;;;;;;;;;;;;;;;;5017279;28;6813;-63
2023/03/27 01:30:17;;;;;;;;;;;;;;;;;;5017527;28;7402;-63
2023/03/27 01:33:04;;;;;;;;;;;;;;;;;;5017312;28;7131;-63
2023/03/27 01:35:29;;;;;;;;;;;;;;;;;;5017919;28;7170;-63
2023/03/27 01:43:46;;;;;;;;;;;;;;;;;;5016828;28;7027;-63
2023/03/27 01:46:12;;;;;;;;;;;;;;;;;;5017136;28;7127;-63
2023/03/27 01:52:13;;;;;;;;;;;;;;;;;;5016764;28;6932;-63
2023/03/27 01:54:45;;;;;;;;;;;;;;;;;;5016264;28;6794;-63
2023/03/27 02:00:49;;;;;;;;;;;;;;;;;;5016668;28;6928;-63
2023/03/27 02:03:26;;;;;;;;;;;;;;;;;;5016871;28;7546;-63
2023/03/27 02:06:00;;;;;;;;;;;;;;;;;;5016480;28;7024;-63
2023/03/27 02:08:32;;;;;;;;;;;;;;;;;;5016333;28;7205;-63
2023/03/27 02:11:30;;;;;;;;;;;;;;;;;;5016725;28;7141;-63
2023/03/27 02:14:01;;;;;;;;;;;;;;;;;;5016621;28;7111;-63
2023/03/27 02:19:34;;;;;;;;;;;;;;;;;;5016317;28;6979;-63
2023/03/27 02:25:04;;;;;;;;;;;;;;;;;;5016312;28;7047;-63
2023/03/27 02:30:43;;;;;;;;;;;;;;;;;;5016457;28;6944;-63
2023/03/27 02:42:22;;;;;;;;;;;;;;;;;;5016298;28;7018;-63
2023/03/27 02:44:57;;;;;;;;;;;;;;;;;;5016067;28;7412;-63
2023/03/27 02:47:43;;;;;;;;;;;;;;;;;;5015901;28;7412;-62
2023/03/27 02:50:32;;;;;;;;;;;;;;;;;;5015629;28;7205;-63
2023/03/27 02:53:00;;;;;;;;;;;;;;;;;;5015409;28;7211;-63
2023/03/27 02:56:02;;;;;;;;;;;;;;;;;;5015887;28;7134;-62
2023/03/27 02:58:39;;;;;;;;;;;;;;;;;;4996139;28;7134;-62
2023/03/27 03:01:18;;;;;;;;;;;;;;;;;;4996177;28;7269;-63
2023/03/27 03:03:52;;;;;;;;;;;;;;;;;;4996175;28;6969;-63
2023/03/27 03:06:28;;;;;;;;;;;;;;;;;;4994561;28;6989;-63
2023/03/27 03:09:05;;;;;;;;;;;;;;;;;;4996161;28;7079;-63
2023/03/27 03:11:33;;;;;;;;;;;;;;;;;;4996028;28;7142;-63
2023/03/27 03:14:18;;;;;;;;;;;;;;;;;;4996026;28;6974;-63
2023/03/27 03:16:44;;;;;;;;;;;;;;;;;;4995855;28;7195;-63
2023/03/27 03:19:11;;;;;;;;;;;;;;;;;;4995863;28;7109;-63
2023/03/27 03:21:38;;;;;;;;;;;;;;;;;;4995846;28;6973;-63
2023/03/27 03:24:04;;;;;;;;;;;;;;;;;;4996783;28;7251;-62
2023/03/27 03:26:49;;;;;;;;;;;;;;;;;;4995697;28;7128;-62
2023/03/27 03:29:15;;;;;;;;;;;;;;;;;;4995453;28;7362;-62
2023/03/27 03:31:43;;;;;;;;;;;;;;;;;;4995569;28;6948;-62
2023/03/27 03:37:12;;;;;;;;;;;;;;;;;;4995301;28;7032;-63
2023/03/27 03:39:40;;;;;;;;;;;;;;;;;;4995577;28;7354;-62
2023/03/27 03:42:16;;;;;;;;;;;;;;;;;;4995115;28;7182;-62
2023/03/27 03:44:42;;;;;;;;;;;;;;;;;;4995536;28;7162;-62
2023/03/27 03:50:11;;;;;;;;;;;;;;;;;;4995219;28;6686;-62
2023/03/27 03:52:38;;;;;;;;;;;;;;;;;;4995352;28;7027;-62
2023/03/27 03:55:05;;;;;;;;;;;;;;;;;;4995372;28;7639;-62
2023/03/27 03:57:31;;;;;;;;;;;;;;;;;;4995267;28;7124;-62
2023/03/27 03:59:57;;;;;;;;;;;;;;;;;;4995186;28;7140;-62
2023/03/27 04:02:40;;;;;;;;;;;;;;;;;;4995903;28;6992;-62
2023/03/27 04:05:06;;;;;;;;;;;;;;;;;;4995468;28;7349;-62
2023/03/27 04:07:32;;;;;;;;;;;;;;;;;;4994875;28;7235;-62
2023/03/27 04:10:00;;;;;;;;;;;;;;;;;;4995513;28;7123;-62
2023/03/27 04:12:26;;;;;;;;;;;;;;;;;;4994592;28;8435;-62
2023/03/27 04:14:53;;;;;;;;;;;;;;;;;;4994876;28;8007;-63
2023/03/27 04:17:19;;;;;;;;;;;;;;;;;;4995102;28;7122;-63
2023/03/27 04:19:45;;;;;;;;;;;;;;;;;;4998418;28;7261;-63
2023/03/27 04:22:22;;;;;;;;;;;;;;;;;;5003455;28;7114;-62
2023/03/27 04:24:49;;;;;;;;;;;;;;;;;;5018309;28;7182;-63
2023/03/27 04:27:29;;;;;;;;;;;;;;;;;;5018290;28;7159;-64
2023/03/27 04:29:54;;;;;;;;;;;;;;;;;;5013300;28;7169;-63
2023/03/27 04:32:20;;;;;;;;;;;;;;;;;;5019047;28;7113;-63
2023/03/27 04:34:47;;;;;;;;;;;;;;;;;;5017620;28;8514;-63
2023/03/27 04:37:13;;;;;;;;;;;;;;;;;;5018263;28;7912;-64
2023/03/27 04:39:41;;;;;;;;;;;;;;;;;;5016816;28;7339;-63
2023/03/27 04:45:03;;;;;;;;;;;;;;;;;;5003553;28;6883;-63
2023/03/27 04:47:42;;;;;;;;;;;;;;;;;;5017954;28;7422;-63
2023/03/27 04:50:09;;;;;;;;;;;;;;;;;;5017976;28;7924;-63
2023/03/27 04:53:04;;;;;;;;;;;;;;;;;;5005774;28;6947;-63
2023/03/27 04:55:29;;;;;;;;;;;;;;;;;;5016212;28;7166;-64
2023/03/27 04:58:05;;;;;;;;;;;;;;;;;;5017838;28;7119;-63
2023/03/27 05:00:30;;;;;;;;;;;;;;;;;;5014476;28;8078;-63
2023/03/27 05:02:59;;;;;;;;;;;;;;;;;;5018074;28;7211;-63
2023/03/27 05:05:26;;;;;;;;;;;;;;;;;;5001856;28;6951;-63
2023/03/27 05:08:00;;;;;;;;;;;;;;;;;;5016545;28;7194;-63
2023/03/27 05:10:26;;;;;;;;;;;;;;;;;;5017816;28;7342;-63
2023/03/27 05:13:01;;;;;;;;;;;;;;;;;;5017524;28;6988;-63
2023/03/27 05:15:29;;;;;;;;;;;;;;;;;;5017658;28;6954;-64
2023/03/27 05:20:57;;;;;;;;;;;;;;;;;;4997704;28;6700;-68
2023/03/27 05:23:23;;;;;;;;;;;;;;;;;;4997945;28;7175;-69
2023/03/27 05:25:49;;;;;;;;;;;;;;;;;;4997860;28;7422;-67
2023/03/27 05:31:55;;;;;;;;;;;;;;;;;;5015015;28;6678;-76
2023/03/27 05:40:09;;;;;;;;;;;;;;;;;;5013025;28;7209;-68
2023/03/27 05:42:40;;;;;;;;;;;;;;;;;;5017297;28;7308;-68
2023/03/27 05:45:08;;;;;;;;;;;;;;;;;;5017035;28;7218;-68
2023/03/27 05:47:41;;;;;;;;;;;;;;;;;;5017182;28;7427;-68
2023/03/27 05:56:13;;;;;;;;;;;;;;;;;;5016739;28;6681;-68
2023/03/27 05:58:39;;;;;;;;;;;;;;;;;;5016939;28;7044;-68
2023/03/27 06:01:19;;;;;;;;;;;;;;;;;;5025448;28;7144;-68
2023/03/27 06:03:48;;;;;;;;;;;;;;;;;;5037197;28;7181;-68
2023/03/27 06:06:14;;;;;;;;;;;;;;;;;;5036287;28;7183;-68
2023/03/27 06:11:31;;;;;;;;;;;;;;;;;;5037063;28;7122;-68
2023/03/27 06:14:03;;;;;;;;;;;;;;;;;;5036294;28;7112;-68
2023/03/27 06:16:28;;;;;;;;;;;;;;;;;;5036202;28;7399;-68
2023/03/27 06:19:10;;;;;;;;;;;;;;;;;;5036331;28;7235;-68
2023/03/27 06:21:35;;;;;;;;;;;;;;;;;;5036307;28;6929;-68
2023/03/27 06:24:01;;;;;;;;;;;;;;;;;;5036129;28;7023;-68
2023/03/27 06:26:27;;;;;;;;;;;;;;;;;;5036138;28;7211;-68
2023/03/27 06:34:58;;;;;;;;;;;;;;;;;;5035907;28;6674;-68
2023/03/27 06:37:23;;;;;;;;;;;;;;;;;;5035636;28;7187;-68
2023/03/27 06:39:49;;;;;;;;;;;;;;;;;;5033853;28;7393;-68
2023/03/27 06:42:37;;;;;;;;;;;;;;;;;;5021243;28;7088;-69
2023/03/27 06:45:04;;;;;;;;;;;;;;;;;;5015814;28;7217;-69
2023/03/27 06:47:30;;;;;;;;;;;;;;;;;;4999216;28;7389;-69
2023/03/27 06:49:55;;;;;;;;;;;;;;;;;;4996320;28;6934;-69
2023/03/27 06:55:26;;;;;;;;;;;;;;;;;;4996017;28;6694;-68
2023/03/27 06:58:12;;;;;;;;;;;;;;;;;;4996277;28;6946;-68
2023/03/27 07:00:39;;;;;;;;;;;;;;;;;;4996196;28;7164;-67
2023/03/27 07:03:07;;;;;;;;;;;;;;;;;;4995942;28;6947;-67
2023/03/27 07:08:35;;;;;;;;;;;;;;;;;;4995911;28;6683;-66
2023/03/27 07:11:26;;;;;;;;;;;;;;;;;;5002873;28;7021;-67
2023/03/27 07:13:52;;;;;;;;;;;;;;;;;;5015511;28;7186;-67
2023/03/27 07:16:17;;;;;;;;;;;;;;;;;;4998703;28;8772;-67
2023/03/27 07:18:48;;;;;;;;;;;;;;;;;;5015023;28;7156;-67
2023/03/27 07:21:14;;;;;;;;;;;;;;;;;;4997780;28;7169;-68
2023/03/27 07:27:02;;;;;;;;;;;;;;;;;;5015409;28;6990;-68
2023/03/27 07:29:27;;;;;;;;;;;;;;;;;;5015094;28;7149;-69
2023/03/27 07:32:00;;;;;;;;;;;;;;;;;;5013559;28;6999;-69
2023/03/27 07:34:25;;;;;;;;;;;;;;;;;;5015262;28;7128;-68
2023/03/27 07:37:05;;;;;;;;;;;;;;;;;;4997473;28;7182;-68
2023/03/27 07:42:44;;;;;;;;;;;;;;;;;;5014680;28;6699;-69
2023/03/27 07:45:12;;;;;;;;;;;;;;;;;;5014964;28;7187;-69
2023/03/27 07:47:57;;;;;;;;;;;;;;;;;;5015367;28;7174;-69
2023/03/27 07:50:22;;;;;;;;;;;;;;;;;;5014701;28;7238;-69
2023/03/27 07:53:24;;;;;;;;;;;;;;;;;;5014168;28;7108;-68
2023/03/27 07:55:51;;;;;;;;;;;;;;;;;;5014852;28;7422;-68
2023/03/27 08:01:19;;;;;;;;;;;;;;;;;;5014373;28;7075;-68
2023/03/27 08:03:53;;;;;;;;;;;;;;;;;;5013841;28;7163;-68
2023/03/27 08:06:18;;;;;;;;;;;;;;;;;;5006344;28;6992;-68
2023/03/27 08:11:49;;;;;;;;;;;;;;;;;;5014744;28;6909;-68
2023/03/27 08:14:15;;;;;;;;;;;;;;;;;;5014341;28;7216;-68
2023/03/27 08:17:08;;;;;;;;;;;;;;;;;;5014541;28;7441;-68
2023/03/27 08:19:33;;;;;;;;;;;;;;;;;;5014488;28;7091;-68
2023/03/27 08:25:34;;;;;;;;;;;;;;;;;;5014580;28;6698;-68
2023/03/27 08:28:01;;;;;;;;;;;;;;;;;;5014431;28;7400;-68
2023/03/27 08:30:50;;;;;;;;;;;;;;;;;;5014632;28;7027;-67
2023/03/27 08:33:18;;;;;;;;;;;;;;;;;;5013893;28;7559;-67
2023/03/27 08:39:11;;;;;;;;;;;;;;;;;;5020669;28;6903;-67
2023/03/27 08:41:40;;;;;;;;;;;;;;;;;;4994491;28;7621;-67
2023/03/27 08:44:41;;;;;;;;;;;;;;;;;;4994399;28;7196;-67
2023/03/27 08:47:14;;;;;;;;;;;;;;;;;;4994947;28;7456;-67
2023/03/27 08:50:05;;;;;;;;;;;;;;;;;;4977363;28;7671;-67
2023/03/27 08:52:32;;;;;;;;;;;;;;;;;;4981031;28;7184;-68
2023/03/27 08:55:22;;;;;;;;;;;;;;;;;;4994695;28;7272;-67
2023/03/27 08:57:49;;;;;;;;;;;;;;;;;;4994410;28;6919;-68
2023/03/27 09:03:43;;;;;;;;;;;;;;;;;;4994421;28;7011;-67
2023/03/27 09:12:19;;;;;;;;;;;;;;;;;;4980940;28;6930;-68
2023/03/27 09:17:50;;;;;;;;;;;;;;;;;;4998102;28;6749;-67
2023/03/27 09:23:26;;;;;;;;;;;;;;;;;;4991747;28;7049;-67
2023/03/27 09:25:58;;;;;;;;;;;;;;;;;;4967588;28;7069;-67
2023/03/27 09:34:32;;;;;;;;;;;;;;;;;;4997647;28;6949;-67
2023/03/27 09:36:58;;;;;;;;;;;;;;;;;;4997480;28;7135;-67
2023/03/27 09:39:31;;;;;;;;;;;;;;;;;;4997617;28;7062;-70
2023/03/27 09:42:08;;;;;;;;;;;;;;;;;;4997970;28;7145;-70
2023/03/27 09:44:37;;;;;;;;;;;;;;;;;;5012998;28;7341;-69
2023/03/27 09:47:13;;;;;;;;;;;;;;;;;;4998509;28;7181;-72
2023/03/27 09:49:53;;;;;;;;;;;;;;;;;;4996416;28;7103;-69
2023/03/27 09:58:27;;;;;;;;;;;;;;;;;;4997170;28;6682;-68
2023/03/27 10:01:06;;;;;;;;;;;;;;;;;;4997624;28;7933;-69
2023/03/27 10:03:39;;;;;;;;;;;;;;;;;;4997196;28;7117;-69
2023/03/27 10:06:12;;;;;;;;;;;;;;;;;;4997201;28;7104;-69
2023/03/27 10:08:41;;;;;;;;;;;;;;;;;;4996985;28;7042;-69
2023/03/27 10:16:35;;;;;;;;;;;;;;;;;;5014509;28;7015;-69
2023/03/27 10:27:39;;;;;;;;;;;;;;;;;;5014573;28;6927;-70
2023/03/27 10:33:08;;;;;;;;;;;;;;;;;;5201588;23;6691;-63
2023/03/27 10:35:49;;;;;;;;;;;;;;;;;;5055922;28;7135;-69
2023/03/27 10:38:17;;;;;;;;;;;;;;;;;;5055918;28;7096;-69
2023/03/27 10:41:17;;;;;;;;;;;;;;;;;;5056049;28;7112;-70
2023/03/27 10:43:45;;;;;;;;;;;;;;;;;;5055854;28;7045;-70
2023/03/27 10:46:14;;;;;;;;;;;;;;;;;;5056437;28;6928;-70
2023/03/27 10:49:11;;;;;;;;;;;;;;;;;;5055650;28;7068;-71
2023/03/27 10:51:45;;;;;;;;;;;;;;;;;;5035738;28;7509;-70
2023/03/27 10:54:29;;;;;;;;;;;;;;;;;;5036148;28;7256;-70
2023/03/27 10:57:06;;;;;;;;;;;;;;;;;;5035519;28;7167;-70
2023/03/27 10:59:34;;;;;;;;;;;;;;;;;;5035456;28;7306;-70
2023/03/27 11:08:05;;;;;;;;;;;;;;;;;;5035346;28;6674;-70
2023/03/27 11:13:38;;;;;;;;;;;;;;;;;;5035168;28;6681;-70
2023/03/27 11:16:26;;;;;;;;;;;;;;;;;;5034948;28;8418;-70
2023/03/27 11:19:09;;;;;;;;;;;;;;;;;;5017486;28;8514;-70
2023/03/27 11:22:01;;;;;;;;;;;;;;;;;;5035350;28;7392;-70
2023/03/27 11:24:37;;;;;;;;;;;;;;;;;;5035286;28;6970;-70
2023/03/27 11:27:40;;;;;;;;;;;;;;;;;;5034879;28;7394;-70
2023/03/27 11:30:13;;;;;;;;;;;;;;;;;;5035166;28;7119;-68
2023/03/27 11:42:17;;;;;;;;;;;;;;;;;;5015357;28;6684;-68
2023/03/27 11:44:43;;;;;;;;;;;;;;;;;;5015154;28;7124;-68
2023/03/27 11:47:09;;;;;;;;;;;;;;;;;;5016140;28;7303;-67
2023/03/27 11:52:40;;;;;;;;;;;;;;;;;;5014820;28;6687;-67
2023/03/27 11:55:12;;;;;;;;;;;;;;;;;;4997951;28;7231;-67
2023/03/27 12:01:00;;;;;;;;;;;;;;;;;;5015659;28;6793;-68
2023/03/27 12:03:38;;;;;;;;;;;;;;;;;;5013852;28;7120;-68
2023/03/27 12:06:15;;;;;;;;;;;;;;;;;;5015229;28;7260;-67
2023/03/27 12:12:03;;;;;;;;;;;;;;;;;;5014768;28;6966;-67
2023/03/27 12:20:27;;;;;;;;;;;;;;;;;;5015635;28;6954;-68
2023/03/27 12:29:01;;;;;;;;;;;;;;;;;;5015650;28;6993;-68
2023/03/27 12:31:27;;;;;;;;;;;;;;;;;;5014773;28;7054;-68
2023/03/27 12:34:02;;;;;;;;;;;;;;;;;;5020507;28;7219;-68
2023/03/27 12:36:34;;;;;;;;;;;;;;;;;;5034344;28;7224;-67
2023/03/27 12:39:00;;;;;;;;;;;;;;;;;;5034895;28;7405;-67
2023/03/27 12:41:36;;;;;;;;;;;;;;;;;;5038256;28;7167;-68
2023/03/27 12:44:05;;;;;;;;;;;;;;;;;;5038285;28;7064;-68
2023/03/27 12:46:33;;;;;;;;;;;;;;;;;;5039222;28;7926;-68
2023/03/27 12:48:58;;;;;;;;;;;;;;;;;;5038152;28;7051;-68
2023/03/27 12:51:36;;;;;;;;;;;;;;;;;;5038128;28;7106;-68
2023/03/27 12:57:04;;;;;;;;;;;;;;;;;;5037787;28;6686;-68
2023/03/27 12:59:50;;;;;;;;;;;;;;;;;;5037890;28;7144;-68
2023/03/27 13:02:34;;;;;;;;;;;;;;;;;;5037888;28;7240;-69
2023/03/27 13:08:06;;;;;;;;;;;;;;;;;;5038108;28;6967;-68
2023/03/27 13:10:49;;;;;;;;;;;;;;;;;;5037993;28;7356;-68
2023/03/27 13:13:18;;;;;;;;;;;;;;;;;;5037359;28;7397;-68
2023/03/27 13:19:04;;;;;;;;;;;;;;;;;;5037466;28;6926;-67
2023/03/27 13:25:03;;;;;;;;;;;;;;;;;;5037580;28;6978;-67
2023/03/27 13:27:56;;;;;;;;;;;;;;;;;;4957108;28;7129;-67
2023/03/27 13:30:40;;;;;;;;;;;;;;;;;;4957346;28;7302;-67
2023/03/27 13:33:17;;;;;;;;;;;;;;;;;;4957086;28;7204;-68
2023/03/27 13:36:01;;;;;;;;;;;;;;;;;;4957153;28;7003;-68
2023/03/27 13:41:37;;;;;;;;;;;;;;;;;;4957150;28;7100;-67
2023/03/27 13:44:27;;;;;;;;;;;;;;;;;;4956829;28;7237;-67
2023/03/27 13:46:56;;;;;;;;;;;;;;;;;;4956567;28;7103;-68
2023/03/27 13:52:46;;;;;;;;;;;;;;;;;;4956116;28;6700;-68
2023/03/27 13:55:15;;;;;;;;;;;;;;;;;;4957137;28;7204;-68
2023/03/27 14:01:02;;;;;;;;;;;;;;;;;;4956705;28;6970;-67
2023/03/27 14:04:04;;;;;;;;;;;;;;;;;;4977710;28;7105;-67
2023/03/27 14:09:50;;;;;;;;;;;;;;;;;;4975854;28;7088;-67
2023/03/27 14:15:29;;;;;;;;;;;;;;;;;;4975184;28;6937;-68
2023/03/27 14:18:25;;;;;;;;;;;;;;;;;;4975659;28;7020;-68
2023/03/27 14:21:02;;;;;;;;;;;;;;;;;;4973327;28;7149;-68
2023/03/27 14:23:32;;;;;;;;;;;;;;;;;;4995040;28;7011;-68
2023/03/27 14:26:02;;;;;;;;;;;;;;;;;;4990482;28;7390;-65
2023/03/27 14:28:48;;;;;;;;;;;;;;;;;;4975731;28;7050;-65
2023/03/27 14:31:17;;;;;;;;;;;;;;;;;;4975255;28;6824;-65
2023/03/27 14:34:09;;;;;;;;;;;;;;;;;;4975360;28;7000;-65
2023/03/27 14:36:47;;;;;;;;;;;;;;;;;;4973154;28;7242;-65
2023/03/27 14:39:20;;;;;;;;;;;;;;;;;;4959005;28;8785;-64
2023/03/27 14:41:54;;;;;;;;;;;;;;;;;;5017005;28;9030;-64
2023/03/27 14:44:29;;;;;;;;;;;;;;;;;;5016875;28;7212;-65
2023/03/27 14:47:04;;;;;;;;;;;;;;;;;;5016069;28;7267;-64
2023/03/27 14:49:37;;;;;;;;;;;;;;;;;;5031778;28;6990;-64
2023/03/27 14:55:10;;;;;;;;;;;;;;;;;;5015764;28;6990;-64
2023/03/27 14:57:55;;;;;;;;;;;;;;;;;;5016144;28;7201;-65
2023/03/27 15:00:23;;;;;;;;;;;;;;;;;;5015689;28;6997;-65
2023/03/27 15:06:12;;;;;;;;;;;;;;;;;;5015624;28;6688;-64
2023/03/27 15:08:38;;;;;;;;;;;;;;;;;;5016280;28;7275;-64
2023/03/27 15:11:10;;;;;;;;;;;;;;;;;;5015720;28;7020;-65
2023/03/27 15:13:36;;;;;;;;;;;;;;;;;;5015599;28;6975;-64
2023/03/27 15:16:05;;;;;;;;;;;;;;;;;;5020149;28;7171;-64
2023/03/27 15:18:49;;;;;;;;;;;;;;;;;;5034048;28;7118;-65
2023/03/27 15:27:33;;;;;;;;;;;;;;;;;;5015141;28;6684;-65
2023/03/27 15:30:03;;;;;;;;;;;;;;;;;;5016213;28;7381;-64
2023/03/27 15:35:50;;;;;;;;;;;;;;;;;;5053349;28;7043;-63
2023/03/27 15:38:19;;;;;;;;;;;;;;;;;;5054725;28;7402;-63
2023/03/27 15:40:46;;;;;;;;;;;;;;;;;;5055399;28;7055;-64
2023/03/27 15:43:12;;;;;;;;;;;;;;;;;;5054889;28;6953;-64
2023/03/27 15:45:55;;;;;;;;;;;;;;;;;;5055032;28;7209;-64
2023/03/27 15:48:23;;;;;;;;;;;;;;;;;;5054696;28;7046;-64
2023/03/27 15:50:59;;;;;;;;;;;;;;;;;;5043885;28;7146;-64
2023/03/27 15:59:43;;;;;;;;;;;;;;;;;;5034572;28;6699;-64
2023/03/27 16:02:13;;;;;;;;;;;;;;;;;;5034767;28;7252;-64
2023/03/27 16:04:51;;;;;;;;;;;;;;;;;;5034735;28;7151;-64
2023/03/27 16:07:24;;;;;;;;;;;;;;;;;;5047193;28;7264;-64
2023/03/27 16:09:53;;;;;;;;;;;;;;;;;;5054684;28;7175;-63
2023/03/27 16:12:24;;;;;;;;;;;;;;;;;;5054572;28;7365;-64
2023/03/27 16:14:55;;;;;;;;;;;;;;;;;;5056354;28;7207;-64
2023/03/27 16:17:44;;;;;;;;;;;;;;;;;;5058657;28;7539;-64
2023/03/27 16:20:23;;;;;;;;;;;;;;;;;;5058750;28;7403;-66
2023/03/27 16:22:50;;;;;;;;;;;;;;;;;;5056377;28;7002;-67
2023/03/27 16:31:19;;;;;;;;;;;;;;;;;;5038576;28;6995;-67
2023/03/27 16:33:46;;;;;;;;;;;;;;;;;;5037733;28;7146;-67
2023/03/27 16:36:14;;;;;;;;;;;;;;;;;;5038167;28;7203;-66
2023/03/27 16:41:57;;;;;;;;;;;;;;;;;;5038202;28;6932;-66
2023/03/27 16:44:50;;;;;;;;;;;;;;;;;;5038234;28;7190;-66
2023/03/27 16:47:16;;;;;;;;;;;;;;;;;;5037915;28;7090;-66
2023/03/27 16:49:42;;;;;;;;;;;;;;;;;;5038200;28;7408;-67
2023/03/27 16:52:07;;;;;;;;;;;;;;;;;;5037801;28;6962;-66
2023/03/27 16:54:33;;;;;;;;;;;;;;;;;;5037850;28;7107;-66
2023/03/27 16:56:59;;;;;;;;;;;;;;;;;;5037936;28;7226;-66
2023/03/27 16:59:43;;;;;;;;;;;;;;;;;;5037958;28;7101;-66
2023/03/27 17:02:35;;;;;;;;;;;;;;;;;;5038475;28;7174;-66
2023/03/27 17:05:01;;;;;;;;;;;;;;;;;;5037482;28;7343;-66
2023/03/27 17:07:27;;;;;;;;;;;;;;;;;;5050679;28;7111;-66
2023/03/27 17:12:45;;;;;;;;;;;;;;;;;;5057639;28;6753;-65
2023/03/27 17:15:28;;;;;;;;;;;;;;;;;;5057268;28;8360;-66
2023/03/27 17:17:53;;;;;;;;;;;;;;;;;;5057519;28;6968;-66
2023/03/27 17:20:33;;;;;;;;;;;;;;;;;;5057460;28;7365;-66
2023/03/27 17:22:59;;;;;;;;;;;;;;;;;;5057221;28;7038;-66
2023/03/27 17:25:38;;;;;;;;;;;;;;;;;;5056825;28;6938;-66
2023/03/27 17:28:05;;;;;;;;;;;;;;;;;;5057304;28;7027;-66
2023/03/27 17:30:31;;;;;;;;;;;;;;;;;;5057309;28;7159;-66
2023/03/27 17:35:59;;;;;;;;;;;;;;;;;;5056287;28;6898;-66
2023/03/27 17:44:30;;;;;;;;;;;;;;;;;;5037260;28;6719;-70
2023/03/27 17:46:57;;;;;;;;;;;;;;;;;;5036985;28;7165;-69
2023/03/27 17:49:22;;;;;;;;;;;;;;;;;;5037016;28;7257;-69
2023/03/27 17:51:48;;;;;;;;;;;;;;;;;;5036978;28;7077;-69
2023/03/27 17:54:36;;;;;;;;;;;;;;;;;;5036490;28;7168;-70
2023/03/27 17:57:02;;;;;;;;;;;;;;;;;;5036715;28;7350;-70
2023/03/27 17:59:29;;;;;;;;;;;;;;;;;;5019544;28;8536;-70
2023/03/27 18:01:56;;;;;;;;;;;;;;;;;;5036814;28;7126;-70
2023/03/27 18:07:24;;;;;;;;;;;;;;;;;;5036284;28;7402;-70
2023/03/27 18:09:51;;;;;;;;;;;;;;;;;;5036695;28;7393;-69
2023/03/27 18:12:32;;;;;;;;;;;;;;;;;;5036653;28;6943;-69
2023/03/27 18:18:02;;;;;;;;;;;;;;;;;;5056129;28;6688;-70
2023/03/27 18:20:27;;;;;;;;;;;;;;;;;;5056430;28;7035;-70
2023/03/27 18:22:53;;;;;;;;;;;;;;;;;;5056303;28;7008;-70
2023/03/27 18:25:40;;;;;;;;;;;;;;;;;;5056050;28;7898;-70
2023/03/27 18:28:08;;;;;;;;;;;;;;;;;;5055769;28;7207;-69
2023/03/27 18:33:37;;;;;;;;;;;;;;;;;;5049544;28;6681;-69
2023/03/27 18:36:03;;;;;;;;;;;;;;;;;;5052615;28;6961;-70
2023/03/27 18:38:31;;;;;;;;;;;;;;;;;;5055644;28;7110;-71
2023/03/27 18:41:17;;;;;;;;;;;;;;;;;;5038205;28;7225;-71
2023/03/27 18:43:43;;;;;;;;;;;;;;;;;;5035524;28;6970;-72
2023/03/27 18:46:24;;;;;;;;;;;;;;;;;;5036001;28;7176;-71
2023/03/27 18:48:49;;;;;;;;;;;;;;;;;;5035877;28;7006;-71
2023/03/27 18:51:18;;;;;;;;;;;;;;;;;;5035976;28;7113;-71
2023/03/27 18:53:54;;;;;;;;;;;;;;;;;;5051324;28;7557;-71
2023/03/27 18:56:19;;;;;;;;;;;;;;;;;;5055657;28;7371;-71
2023/03/27 18:59:00;;;;;;;;;;;;;;;;;;5055922;28;7381;-71
2023/03/27 19:01:25;;;;;;;;;;;;;;;;;;5055646;28;7133;-71
2023/03/27 19:06:54;;;;;;;;;;;;;;;;;;5054453;28;6923;-71
2023/03/27 19:09:38;;;;;;;;;;;;;;;;;;5055094;28;7210;-71
2023/03/27 19:12:04;;;;;;;;;;;;;;;;;;5055651;28;7236;-71
2023/03/27 19:14:29;;;;;;;;;;;;;;;;;;5055286;28;7124;-71
2023/03/27 19:16:55;;;;;;;;;;;;;;;;;;5055274;28;7373;-71
2023/03/27 19:19:21;;;;;;;;;;;;;;;;;;5055167;28;7006;-71
2023/03/27 19:22:07;;;;;;;;;;;;;;;;;;5054984;28;7203;-71
2023/03/27 19:24:33;;;;;;;;;;;;;;;;;;5055123;28;7058;-71
2023/03/27 19:30:03;;;;;;;;;;;;;;;;;;5054694;28;6958;-71
2023/03/27 19:32:57;;;;;;;;;;;;;;;;;;5055910;28;7161;-71
2023/03/27 19:35:45;;;;;;;;;;;;;;;;;;5054835;28;7303;-71
2023/03/27 19:38:10;;;;;;;;;;;;;;;;;;5055184;28;7264;-71
2023/03/27 19:40:36;;;;;;;;;;;;;;;;;;5054983;28;7186;-71
2023/03/27 19:43:33;;;;;;;;;;;;;;;;;;5054900;28;7199;-71
2023/03/27 19:45:59;;;;;;;;;;;;;;;;;;5054928;28;7107;-71
2023/03/27 19:48:25;;;;;;;;;;;;;;;;;;5054356;28;7192;-71
2023/03/27 19:50:56;;;;;;;;;;;;;;;;;;5054341;28;7146;-71
2023/03/27 19:53:22;;;;;;;;;;;;;;;;;;5051554;28;7185;-71
2023/03/27 19:58:51;;;;;;;;;;;;;;;;;;5054292;28;6763;-71
2023/03/27 20:01:18;;;;;;;;;;;;;;;;;;5054394;28;6974;-71
2023/03/27 20:03:44;;;;;;;;;;;;;;;;;;5054441;28;6941;-72
2023/03/27 20:06:14;;;;;;;;;;;;;;;;;;5054515;28;7011;-71
2023/03/27 20:09:11;;;;;;;;;;;;;;;;;;5049286;28;7205;-71
2023/03/27 20:11:36;;;;;;;;;;;;;;;;;;5054749;28;6978;-71
2023/03/27 20:14:02;;;;;;;;;;;;;;;;;;5055303;28;7022;-71
2023/03/27 20:16:28;;;;;;;;;;;;;;;;;;5054999;28;6949;-71
2023/03/27 20:19:01;;;;;;;;;;;;;;;;;;5054551;28;6979;-71
2023/03/27 20:21:29;;;;;;;;;;;;;;;;;;5027292;28;7073;-71
2023/03/27 20:24:21;;;;;;;;;;;;;;;;;;5050255;28;7369;-71
2023/03/27 20:26:48;;;;;;;;;;;;;;;;;;5054235;28;7041;-71
2023/03/27 20:29:16;;;;;;;;;;;;;;;;;;5054394;28;6929;-71
2023/03/27 20:31:58;;;;;;;;;;;;;;;;;;5054191;28;7384;-71
2023/03/27 20:37:16;;;;;;;;;;;;;;;;;;5054531;28;6909;-71
2023/03/27 20:39:48;;;;;;;;;;;;;;;;;;5054388;28;7148;-71
2023/03/27 20:42:15;;;;;;;;;;;;;;;;;;5054293;28;7041;-71
2023/03/27 20:44:42;;;;;;;;;;;;;;;;;;5054364;28;7213;-71
2023/03/27 20:47:11;;;;;;;;;;;;;;;;;;5054074;28;7112;-71
2023/03/27 20:52:40;;;;;;;;;;;;;;;;;;5053943;28;6678;-71
2023/03/27 20:55:27;;;;;;;;;;;;;;;;;;5054203;28;7235;-71
2023/03/27 20:57:53;;;;;;;;;;;;;;;;;;5054128;28;7136;-71
2023/03/27 21:00:18;;;;;;;;;;;;;;;;;;5055034;28;7109;-71
2023/03/27 21:05:47;;;;;;;;;;;;;;;;;;5057641;28;7055;-71
2023/03/27 21:08:13;;;;;;;;;;;;;;;;;;5057780;28;6910;-71
2023/03/27 21:10:39;;;;;;;;;;;;;;;;;;5057738;28;7135;-71
2023/03/27 21:13:05;;;;;;;;;;;;;;;;;;5057614;28;7366;-71
2023/03/27 21:15:32;;;;;;;;;;;;;;;;;;5057680;28;7135;-71
2023/03/27 21:17:59;;;;;;;;;;;;;;;;;;5057181;28;7310;-71
2023/03/27 21:20:24;;;;;;;;;;;;;;;;;;5050806;28;7204;-72
2023/03/27 21:22:53;;;;;;;;;;;;;;;;;;5037414;28;7029;-72
2023/03/27 21:28:21;;;;;;;;;;;;;;;;;;5037503;28;6684;-72
2023/03/27 21:30:47;;;;;;;;;;;;;;;;;;5037470;28;7025;-72
2023/03/27 21:36:15;;;;;;;;;;;;;;;;;;5053012;28;7028;-72
2023/03/27 21:38:49;;;;;;;;;;;;;;;;;;5057106;28;7275;-72
2023/03/27 21:41:18;;;;;;;;;;;;;;;;;;5057207;28;7535;-72
2023/03/27 21:43:44;;;;;;;;;;;;;;;;;;5057119;28;6916;-72
2023/03/27 21:46:10;;;;;;;;;;;;;;;;;;5056854;28;6955;-72
2023/03/27 21:51:38;;;;;;;;;;;;;;;;;;5056841;28;6697;-71
2023/03/27 21:57:07;;;;;;;;;;;;;;;;;;5056606;28;6687;-71
2023/03/27 22:00:03;;;;;;;;;;;;;;;;;;5056852;28;7168;-71
2023/03/27 22:02:29;;;;;;;;;;;;;;;;;;5056653;28;7186;-71
2023/03/27 22:04:55;;;;;;;;;;;;;;;;;;5056785;28;7351;-71
2023/03/27 22:10:51;;;;;;;;;;;;;;;;;;5056292;28;6935;-71
2023/03/27 22:13:40;;;;;;;;;;;;;;;;;;5055829;28;7419;-71
2023/03/27 22:16:07;;;;;;;;;;;;;;;;;;5056632;28;7154;-71
2023/03/27 22:18:34;;;;;;;;;;;;;;;;;;5056114;28;7183;-71
2023/03/27 22:21:15;;;;;;;;;;;;;;;;;;5046985;28;7214;-71
2023/03/27 22:23:41;;;;;;;;;;;;;;;;;;5056142;28;7179;-71
2023/03/27 22:26:07;;;;;;;;;;;;;;;;;;5056327;28;7205;-71
2023/03/27 22:28:33;;;;;;;;;;;;;;;;;;5056232;28;7166;-71
2023/03/27 22:30:59;;;;;;;;;;;;;;;;;;5057347;28;7277;-71
2023/03/27 22:36:27;;;;;;;;;;;;;;;;;;5051116;28;6682;-71
2023/03/27 22:41:56;;;;;;;;;;;;;;;;;;5055867;28;6687;-71
2023/03/27 22:47:25;;;;;;;;;;;;;;;;;;5055587;28;6724;-71
2023/03/27 22:49:54;;;;;;;;;;;;;;;;;;5056057;28;7280;-71
2023/03/27 22:52:49;;;;;;;;;;;;;;;;;;5055936;28;7202;-71
2023/03/27 22:55:15;;;;;;;;;;;;;;;;;;5055753;28;7138;-71
2023/03/27 22:57:41;;;;;;;;;;;;;;;;;;5055528;28;7048;-71
2023/03/27 23:00:25;;;;;;;;;;;;;;;;;;5055607;28;7325;-71
2023/03/27 23:02:51;;;;;;;;;;;;;;;;;;5055306;28;7149;-71
2023/03/27 23:05:17;;;;;;;;;;;;;;;;;;5055544;28;7662;-71